ARG1719 SAAR-SABE
Flight info
| Callsign | ARG1719 |
|---|---|
| Flight time | N/A |
| Altitude | 21000 |
| Route | VASAL2C VASAL W20 MULTA W24 SNT SNT8Q |
| Aircraft | A320/M-SDE3FGHIRWY/LB1 |
Departure
| Time | 2026-05-06 03:18 |
|---|---|
| Airport | Rosario Islas Malvinas International Airport (SAAR) |
Arrival
| Time | N/A |
|---|---|
| Airport | Aeroparque Jorge Newbery (SABE) |
| Time | Latitude | Longitude | Altitude | Speed | Heading |
|---|---|---|---|---|---|
| 2026-05-06 03:13 | -32.91534 | -60.78203 | 95 ft | 0 kts | 196° |
| 2026-05-06 03:15 | -32.91528 | -60.78201 | 96 ft | 1 kts | 199° |
| 2026-05-06 03:15 | -32.91566 | -60.78217 | 95 ft | 19 kts | 200° |
| 2026-05-06 03:16 | -32.91720 | -60.78287 | 95 ft | 25 kts | 203° |
| 2026-05-06 03:16 | -32.91764 | -60.78412 | 96 ft | 15 kts | 257° |
| 2026-05-06 03:16 | -32.91790 | -60.78528 | 97 ft | 14 kts | 255° |
| 2026-05-06 03:16 | -32.91801 | -60.78635 | 95 ft | 12 kts | 283° |
| 2026-05-06 03:17 | -32.91683 | -60.78724 | 95 ft | 39 kts | 342° |
| 2026-05-06 03:17 | -32.91525 | -60.78728 | 96 ft | 0 kts | 3° |
| 2026-05-06 03:17 | -32.91472 | -60.78720 | 97 ft | 28 kts | 10° |
| 2026-05-06 03:18 | -32.91016 | -60.78614 | 99 ft | 101 kts | 11° |
| 2026-05-06 03:18 | -32.90130 | -60.78416 | 98 ft | 156 kts | 11° |
| 2026-05-06 03:18 | -32.89030 | -60.78148 | 555 ft | 164 kts | 12° |
| 2026-05-06 03:18 | -32.87847 | -60.77909 | 1006 ft | 180 kts | 13° |
| 2026-05-06 03:19 | -32.86576 | -60.77590 | 1399 ft | 199 kts | 19° |
| 2026-05-06 03:19 | -32.85468 | -60.76563 | 1830 ft | 214 kts | 53° |
| 2026-05-06 03:19 | -32.84553 | -60.75130 | 2549 ft | 220 kts | 53° |
| 2026-05-06 03:19 | -32.83970 | -60.73433 | 3142 ft | 239 kts | 79° |
| 2026-05-06 03:20 | -32.85399 | -60.69669 | 4199 ft | 283 kts | 148° |
| 2026-05-06 03:20 | -32.87194 | -60.68647 | 4986 ft | 290 kts | 159° |
| 2026-05-06 03:20 | -32.89100 | -60.67787 | 5779 ft | 296 kts | 161° |
| 2026-05-06 03:21 | -32.91067 | -60.66973 | 6551 ft | 303 kts | 162° |
| 2026-05-06 03:21 | -32.93068 | -60.66156 | 7375 ft | 306 kts | 162° |
| 2026-05-06 03:21 | -32.95081 | -60.65319 | 8231 ft | 307 kts | 161° |
| 2026-05-06 03:21 | -32.97101 | -60.64456 | 9084 ft | 309 kts | 161° |
| 2026-05-06 03:22 | -32.99124 | -60.63573 | 9914 ft | 311 kts | 161° |
| 2026-05-06 03:22 | -33.01195 | -60.62658 | 10326 ft | 328 kts | 161° |
| 2026-05-06 03:22 | -33.03405 | -60.61678 | 10580 ft | 348 kts | 161° |
| 2026-05-06 03:22 | -33.05702 | -60.60655 | 11149 ft | 355 kts | 161° |
| 2026-05-06 03:23 | -33.08028 | -60.59619 | 11826 ft | 359 kts | 161° |
| 2026-05-06 03:23 | -33.10377 | -60.58575 | 12514 ft | 362 kts | 161° |
| 2026-05-06 03:23 | -33.12750 | -60.57522 | 13217 ft | 365 kts | 162° |
| 2026-05-06 03:23 | -33.14326 | -60.56823 | 13682 ft | 367 kts | 162° |
| 2026-05-06 03:24 | -33.16730 | -60.55758 | 14304 ft | 370 kts | 162° |
| 2026-05-06 03:24 | -33.19149 | -60.54683 | 14921 ft | 372 kts | 162° |
| 2026-05-06 03:24 | -33.21584 | -60.53597 | 15536 ft | 375 kts | 163° |
| 2026-05-06 03:24 | -33.24041 | -60.52499 | 16164 ft | 378 kts | 163° |
| 2026-05-06 03:25 | -33.26510 | -60.51395 | 16783 ft | 381 kts | 163° |
| 2026-05-06 03:25 | -33.29001 | -60.50280 | 17405 ft | 384 kts | 163° |
| 2026-05-06 03:25 | -33.31510 | -60.49158 | 18033 ft | 386 kts | 163° |
| 2026-05-06 03:25 | -33.34014 | -60.47940 | 18589 ft | 392 kts | 158° |
| 2026-05-06 03:26 | -33.36414 | -60.46325 | 19119 ft | 398 kts | 154° |
| 2026-05-06 03:26 | -33.38817 | -60.44647 | 19646 ft | 401 kts | 154° |
| 2026-05-06 03:26 | -33.41237 | -60.42955 | 20156 ft | 405 kts | 154° |
| 2026-05-06 03:26 | -33.43689 | -60.41241 | 20679 ft | 409 kts | 154° |
| 2026-05-06 03:27 | -33.46153 | -60.39520 | 20888 ft | 411 kts | 154° |
| 2026-05-06 03:27 | -33.48595 | -60.37813 | 20938 ft | 401 kts | 154° |
| 2026-05-06 03:27 | -33.50990 | -60.36136 | 20941 ft | 397 kts | 154° |
| 2026-05-06 03:27 | -33.53369 | -60.34470 | 20940 ft | 396 kts | 154° |
| 2026-05-06 03:28 | -33.55745 | -60.32807 | 20944 ft | 395 kts | 154° |
| 2026-05-06 03:28 | -33.58122 | -60.31147 | 20942 ft | 395 kts | 155° |
| 2026-05-06 03:28 | -33.60502 | -60.29485 | 20943 ft | 395 kts | 154° |
| 2026-05-06 03:28 | -33.62871 | -60.27826 | 20943 ft | 395 kts | 154° |
| 2026-05-06 03:29 | -33.65248 | -60.26161 | 20944 ft | 395 kts | 154° |
| 2026-05-06 03:29 | -33.67620 | -60.24497 | 20943 ft | 395 kts | 154° |
| 2026-05-06 03:29 | -33.69995 | -60.22828 | 20944 ft | 395 kts | 154° |
| 2026-05-06 03:29 | -33.72333 | -60.21183 | 20947 ft | 395 kts | 154° |
| 2026-05-06 03:30 | -33.74703 | -60.19517 | 20949 ft | 395 kts | 154° |
| 2026-05-06 03:30 | -33.77071 | -60.17849 | 20948 ft | 395 kts | 154° |
| 2026-05-06 03:30 | -33.79438 | -60.16176 | 20952 ft | 395 kts | 154° |
| 2026-05-06 03:30 | -33.81796 | -60.14473 | 20951 ft | 396 kts | 150° |
| 2026-05-06 03:31 | -33.83949 | -60.12382 | 20949 ft | 402 kts | 139° |
| 2026-05-06 03:31 | -33.85776 | -60.09814 | 20952 ft | 406 kts | 128° |
| 2026-05-06 03:31 | -33.87353 | -60.06996 | 20951 ft | 407 kts | 127° |
| 2026-05-06 03:31 | -33.88928 | -60.04167 | 20949 ft | 407 kts | 127° |
| 2026-05-06 03:32 | -33.90504 | -60.01340 | 20953 ft | 407 kts | 127° |
| 2026-05-06 03:32 | -33.92079 | -59.98520 | 20950 ft | 407 kts | 127° |
| 2026-05-06 03:32 | -33.93661 | -59.95692 | 20952 ft | 407 kts | 127° |
| 2026-05-06 03:32 | -33.95240 | -59.92870 | 20951 ft | 406 kts | 127° |
| 2026-05-06 03:33 | -33.96816 | -59.90044 | 20954 ft | 406 kts | 127° |
| 2026-05-06 03:33 | -33.98390 | -59.87217 | 20954 ft | 406 kts | 127° |
| 2026-05-06 03:33 | -33.99963 | -59.84389 | 20951 ft | 406 kts | 127° |
| 2026-05-06 03:33 | -34.01536 | -59.81555 | 20956 ft | 406 kts | 127° |
| 2026-05-06 03:34 | -34.03106 | -59.78721 | 20957 ft | 406 kts | 127° |
| 2026-05-06 03:34 | -34.04677 | -59.75889 | 20956 ft | 406 kts | 127° |
| 2026-05-06 03:34 | -34.06247 | -59.73054 | 20956 ft | 406 kts | 127° |
| 2026-05-06 03:34 | -34.07814 | -59.70222 | 20958 ft | 406 kts | 127° |
| 2026-05-06 03:35 | -34.09396 | -59.67365 | 20964 ft | 415 kts | 127° |
| 2026-05-06 03:35 | -34.11014 | -59.64450 | 20964 ft | 421 kts | 127° |
| 2026-05-06 03:35 | -34.12645 | -59.61511 | 20965 ft | 422 kts | 126° |
| 2026-05-06 03:35 | -34.14279 | -59.58558 | 20969 ft | 423 kts | 126° |
| 2026-05-06 03:36 | -34.15907 | -59.55612 | 20965 ft | 422 kts | 126° |
| 2026-05-06 03:36 | -34.17536 | -59.52655 | 20966 ft | 423 kts | 126° |
| 2026-05-06 03:36 | -34.19159 | -59.49703 | 20966 ft | 423 kts | 126° |
| 2026-05-06 03:36 | -34.20786 | -59.46742 | 20970 ft | 423 kts | 126° |
| 2026-05-06 03:37 | -34.22139 | -59.43579 | 20970 ft | 426 kts | 111° |
| 2026-05-06 03:37 | -34.22850 | -59.40103 | 20972 ft | 427 kts | 101° |
| 2026-05-06 03:37 | -34.23384 | -59.36617 | 20970 ft | 428 kts | 101° |
| 2026-05-06 03:37 | -34.23926 | -59.33038 | 20969 ft | 428 kts | 101° |
| 2026-05-06 03:38 | -34.24460 | -59.29501 | 20971 ft | 428 kts | 101° |
| 2026-05-06 03:38 | -34.24984 | -59.26014 | 20972 ft | 428 kts | 101° |
| 2026-05-06 03:38 | -34.25515 | -59.22475 | 20975 ft | 428 kts | 101° |
| 2026-05-06 03:38 | -34.26046 | -59.18938 | 20977 ft | 428 kts | 101° |
| 2026-05-06 03:39 | -34.26582 | -59.15401 | 20977 ft | 428 kts | 101° |
| 2026-05-06 03:39 | -34.27117 | -59.11870 | 20982 ft | 428 kts | 101° |
| 2026-05-06 03:39 | -34.27651 | -59.08330 | 20983 ft | 427 kts | 101° |
| 2026-05-06 03:39 | -34.28184 | -59.04799 | 20985 ft | 427 kts | 101° |
| 2026-05-06 03:40 | -34.28717 | -59.01260 | 20984 ft | 427 kts | 101° |
| 2026-05-06 03:40 | -34.29246 | -58.97729 | 20987 ft | 427 kts | 101° |
| 2026-05-06 03:40 | -34.29776 | -58.94197 | 20987 ft | 427 kts | 101° |
| 2026-05-06 03:40 | -34.30304 | -58.90664 | 20987 ft | 427 kts | 101° |
| 2026-05-06 03:41 | -34.30828 | -58.87133 | 20986 ft | 425 kts | 101° |
| 2026-05-06 03:41 | -34.31338 | -58.83680 | 20906 ft | 411 kts | 101° |
| 2026-05-06 03:41 | -34.31831 | -58.80333 | 20775 ft | 394 kts | 101° |
| 2026-05-06 03:41 | -34.32299 | -58.77141 | 20460 ft | 377 kts | 101° |
| 2026-05-06 03:42 | -34.32947 | -58.74157 | 20219 ft | 357 kts | 116° |
| 2026-05-06 03:42 | -34.34208 | -58.71694 | 19979 ft | 335 kts | 135° |
| 2026-05-06 03:42 | -34.35884 | -58.69880 | 19746 ft | 315 kts | 152° |
| 2026-05-06 03:42 | -34.37796 | -58.68717 | 19511 ft | 303 kts | 167° |
| 2026-05-06 03:43 | -34.39822 | -58.68197 | 19284 ft | 294 kts | 182° |
| 2026-05-06 03:43 | -34.41830 | -58.68298 | 19057 ft | 285 kts | 196° |
| 2026-05-06 03:43 | -34.43703 | -58.68966 | 18837 ft | 278 kts | 209° |
| 2026-05-06 03:43 | -34.45355 | -58.70115 | 18600 ft | 272 kts | 222° |
| 2026-05-06 03:44 | -34.46718 | -58.71661 | 18372 ft | 267 kts | 234° |
| 2026-05-06 03:44 | -34.47743 | -58.73513 | 18124 ft | 263 kts | 246° |
| 2026-05-06 03:44 | -34.48398 | -58.75560 | 17859 ft | 260 kts | 258° |
| 2026-05-06 03:44 | -34.48666 | -58.77693 | 17604 ft | 258 kts | 269° |
| 2026-05-06 03:45 | -34.48571 | -58.79856 | 17348 ft | 258 kts | 277° |
| 2026-05-06 03:45 | -34.48293 | -58.82002 | 17085 ft | 257 kts | 280° |
| 2026-05-06 03:45 | -34.47949 | -58.84124 | 16837 ft | 257 kts | 281° |
| 2026-05-06 03:45 | -34.47586 | -58.86240 | 16587 ft | 256 kts | 281° |
| 2026-05-06 03:46 | -34.47225 | -58.88351 | 16337 ft | 256 kts | 281° |
| 2026-05-06 03:46 | -34.46873 | -58.90456 | 16087 ft | 255 kts | 281° |
| 2026-05-06 03:46 | -34.46520 | -58.92563 | 15840 ft | 255 kts | 283° |
| 2026-05-06 03:46 | -34.45962 | -58.94593 | 15600 ft | 255 kts | 294° |
| 2026-05-06 03:47 | -34.45076 | -58.96450 | 15358 ft | 255 kts | 305° |
| 2026-05-06 03:47 | -34.43881 | -58.98041 | 15116 ft | 257 kts | 317° |
| 2026-05-06 03:47 | -34.42413 | -58.99289 | 14876 ft | 259 kts | 329° |
| 2026-05-06 03:47 | -34.40737 | -59.00119 | 14638 ft | 262 kts | 341° |
| 2026-05-06 03:48 | -34.38935 | -59.00482 | 14405 ft | 265 kts | 354° |
| 2026-05-06 03:48 | -34.37085 | -59.00346 | 14165 ft | 268 kts | 7° |
| 2026-05-06 03:48 | -34.35291 | -58.99701 | 13941 ft | 271 kts | 21° |
| 2026-05-06 03:48 | -34.33650 | -58.98565 | 13701 ft | 274 kts | 34° |
| 2026-05-06 03:49 | -34.32254 | -58.96985 | 13439 ft | 276 kts | 48° |
| 2026-05-06 03:49 | -34.31200 | -58.95059 | 13176 ft | 276 kts | 62° |
| 2026-05-06 03:49 | -34.30547 | -58.92880 | 12904 ft | 276 kts | 78° |
| 2026-05-06 03:49 | -34.30486 | -58.90556 | 12144 ft | 284 kts | 102° |
| 2026-05-06 03:50 | -34.31244 | -58.88315 | 11229 ft | 295 kts | 122° |
| 2026-05-06 03:50 | -34.32345 | -58.86153 | 10330 ft | 305 kts | 121° |
| 2026-05-06 03:50 | -34.33464 | -58.83976 | 9672 ft | 304 kts | 121° |
| 2026-05-06 03:50 | -34.34561 | -58.81841 | 9002 ft | 301 kts | 121° |
| 2026-05-06 03:51 | -34.35662 | -58.79695 | 8320 ft | 299 kts | 121° |
| 2026-05-06 03:51 | -34.36752 | -58.77564 | 7639 ft | 297 kts | 121° |
| 2026-05-06 03:51 | -34.37835 | -58.75437 | 6959 ft | 296 kts | 122° |
| 2026-05-06 03:51 | -34.38912 | -58.73319 | 6277 ft | 295 kts | 122° |
| 2026-05-06 03:52 | -34.39981 | -58.71212 | 5586 ft | 292 kts | 122° |
| 2026-05-06 03:52 | -34.41040 | -58.69123 | 4835 ft | 291 kts | 122° |
| 2026-05-06 03:52 | -34.42095 | -58.67038 | 4074 ft | 289 kts | 121° |
| 2026-05-06 03:52 | -34.43139 | -58.64975 | 3450 ft | 282 kts | 120° |
| 2026-05-06 03:53 | -34.44091 | -58.63002 | 3231 ft | 259 kts | 117° |
| 2026-05-06 03:53 | -34.44959 | -58.61196 | 3078 ft | 238 kts | 121° |
| 2026-05-06 03:53 | -34.45835 | -58.59596 | 3002 ft | 217 kts | 122° |
| 2026-05-06 03:53 | -34.46661 | -58.58130 | 2936 ft | 207 kts | 122° |
| 2026-05-06 03:54 | -34.47448 | -58.56728 | 2780 ft | 195 kts | 122° |
| 2026-05-06 03:54 | -34.48190 | -58.55406 | 2518 ft | 184 kts | 121° |
| 2026-05-06 03:54 | -34.48889 | -58.54159 | 2277 ft | 174 kts | 121° |
| 2026-05-06 03:54 | -34.49546 | -58.52987 | 2057 ft | 164 kts | 121° |
| 2026-05-06 03:55 | -34.50175 | -58.51863 | 1844 ft | 158 kts | 120° |
| 2026-05-06 03:55 | -34.50768 | -58.50804 | 1671 ft | 148 kts | 120° |
| 2026-05-06 03:55 | -34.51336 | -58.49788 | 1464 ft | 143 kts | 120° |
| 2026-05-06 03:55 | -34.51891 | -58.48795 | 1277 ft | 141 kts | 120° |
| 2026-05-06 03:56 | -34.52431 | -58.47829 | 1090 ft | 139 kts | 120° |
| 2026-05-06 03:56 | -34.52979 | -58.46849 | 904 ft | 138 kts | 121° |
| 2026-05-06 03:56 | -34.53502 | -58.45913 | 732 ft | 135 kts | 122° |
| 2026-05-06 03:56 | -34.54028 | -58.44972 | 548 ft | 135 kts | 122° |
| 2026-05-06 03:57 | -34.54553 | -58.44033 | 376 ft | 134 kts | 122° |
| 2026-05-06 03:57 | -34.55069 | -58.43101 | 169 ft | 132 kts | 124° |
| 2026-05-06 03:57 | -34.55578 | -58.42186 | 50 ft | 130 kts | 124° |
| 2026-05-06 03:57 | -34.56060 | -58.41366 | 48 ft | 107 kts | 126° |
| 2026-05-06 03:58 | -34.56577 | -58.40552 | 501 ft | 129 kts | 129° |
| 2026-05-06 03:58 | -34.57124 | -58.39783 | 1205 ft | 122 kts | 112° |
| 2026-05-06 03:58 | -34.57386 | -58.39088 | 1304 ft | 148 kts | 107° |